createdAt,value
2022-09-27T00:00:14.837Z,77.80
2022-09-27T00:03:20.724Z,77.13
2022-09-27T00:06:08.100Z,77.25
2022-09-27T00:08:54.574Z,77.11
2022-09-27T00:11:42.763Z,77.89
2022-09-27T00:14:28.637Z,76.40
2022-09-27T00:17:14.721Z,77.74
2022-09-27T00:20:00.753Z,77.30
2022-09-27T00:22:48.239Z,77.26
2022-09-27T00:25:34.525Z,76.90
2022-09-27T00:28:20.799Z,76.66
2022-09-27T00:31:17.108Z,78.08
2022-09-27T00:34:04.912Z,77.39
2022-09-27T00:36:51.889Z,77.59
2022-09-27T00:39:41.825Z,76.58
2022-09-27T00:42:28.586Z,76.70
2022-09-27T00:45:16.488Z,76.66
2022-09-27T00:48:05.037Z,76.67
2022-09-27T00:50:53.088Z,76.78
2022-09-27T00:53:51.642Z,77.30
2022-09-27T00:56:38.105Z,76.25
2022-09-27T00:59:27.557Z,76.81
2022-09-27T01:02:14.522Z,76.67
2022-09-27T01:05:01.355Z,77.24
2022-09-27T01:07:47.581Z,76.89
2022-09-27T01:10:38.586Z,77.10
2022-09-27T01:13:31.028Z,76.38
2022-09-27T01:16:19.145Z,76.57
2022-09-27T01:19:25.616Z,76.60
2022-09-27T01:22:18.533Z,77.71
2022-09-27T01:25:29.626Z,77.40
2022-09-27T01:28:54.341Z,77.03
2022-09-27T01:31:55.777Z,77.70
2022-09-27T01:34:48.487Z,77.53
2022-09-27T01:38:01.665Z,78.40
2022-09-27T01:41:10.670Z,78.33
2022-09-27T01:44:03.906Z,79.34
2022-09-27T01:46:59.545Z,79.21
2022-09-27T01:50:15.496Z,78.23
2022-09-27T01:53:06.521Z,79.74
2022-09-27T01:56:05.931Z,80.88
2022-09-27T01:59:29.629Z,81.22
2022-09-27T02:02:27.495Z,80.60
2022-09-27T02:05:53.652Z,81.03
2022-09-27T02:09:15.448Z,81.55
2022-09-27T02:12:14.488Z,81.67
2022-09-27T02:15:08.216Z,81.94
2022-09-27T02:17:58.731Z,81.30
2022-09-27T02:20:52.565Z,81.97
2022-09-27T02:23:51.598Z,83.47
2022-09-27T02:26:42.444Z,83.36
2022-09-27T02:29:35.642Z,83.94
2022-09-27T02:32:22.217Z,83.26
2022-09-27T02:35:13.242Z,83.67
2022-09-27T02:37:59.725Z,84.74
2022-09-27T02:40:47.291Z,85.17
2022-09-27T02:43:34.556Z,85.30
2022-09-27T02:46:39.655Z,85.25
2022-09-27T02:49:59.093Z,85.22
2022-09-27T02:53:36.669Z,85.55
2022-09-27T02:57:00.793Z,85.45
2022-09-27T03:00:17.603Z,85.70
2022-09-27T03:03:43.532Z,85.75
2022-09-27T03:06:35.882Z,85.39
2022-09-27T03:09:34.609Z,86.10
2022-09-27T03:12:27.282Z,86.13
2022-09-27T03:15:22.033Z,85.34
2022-09-27T03:18:25.600Z,84.38
2022-09-27T03:21:37.326Z,83.79
2022-09-27T03:24:22.672Z,83.54
2022-09-27T03:27:08.596Z,84.55
2022-09-27T03:29:54.470Z,83.44
2022-09-27T03:32:44.738Z,83.40
2022-09-27T03:35:49.325Z,84.53
2022-09-27T03:38:35.542Z,84.83
2022-09-27T03:41:21.526Z,84.51
2022-09-27T03:44:08.342Z,84.29
2022-09-27T03:46:54.429Z,84.89
2022-09-27T03:49:41.114Z,85.15
2022-09-27T03:52:26.705Z,85.85
2022-09-27T03:55:13.595Z,87.04
2022-09-27T03:57:59.842Z,86.30
2022-09-27T04:00:46.418Z,85.73
2022-09-27T04:03:32.267Z,86.17
2022-09-27T04:06:37.272Z,86.42
2022-09-27T04:09:23.689Z,86.82
2022-09-27T04:12:19.829Z,86.42
2022-09-27T04:15:06.196Z,87.29
2022-09-27T04:18:10.097Z,88.15
2022-09-27T04:21:24.823Z,88.22
2022-09-27T04:24:12.215Z,88.57
2022-09-27T04:27:02.275Z,88.55
2022-09-27T04:29:49.125Z,87.93
2022-09-27T04:32:56.543Z,88.50
2022-09-27T04:36:20.145Z,89.08
2022-09-27T04:39:18.430Z,88.46
2022-09-27T04:42:07.039Z,89.20
2022-09-27T04:44:53.070Z,90.41
2022-09-27T04:47:46.347Z,89.63
2022-09-27T04:50:35.842Z,88.98
2022-09-27T04:53:22.909Z,90.08
2022-09-27T04:56:09.282Z,90.10
2022-09-27T04:58:56.078Z,90.29
2022-09-27T05:01:42.341Z,91.20
2022-09-27T05:04:31.939Z,91.10
2022-09-27T05:07:20.144Z,90.86
2022-09-27T05:10:12.249Z,90.42
2022-09-27T05:12:58.244Z,90.55
2022-09-27T05:15:45.048Z,90.78
2022-09-27T05:19:06.057Z,91.20
2022-09-27T05:22:15.523Z,91.55
2022-09-27T05:25:01.367Z,90.78
2022-09-27T05:27:52.053Z,91.84
2022-09-27T05:30:40.229Z,91.21
2022-09-27T05:33:36.046Z,90.87
2022-09-27T05:36:42.249Z,91.17
2022-09-27T05:39:31.139Z,91.41
2022-09-27T05:42:18.043Z,91.04
2022-09-27T05:45:04.921Z,91.72
2022-09-27T05:47:57.842Z,91.47
2022-09-27T05:50:44.789Z,91.54
2022-09-27T05:53:32.592Z,91.33
2022-09-27T05:56:20.598Z,92.07
2022-09-27T05:59:28.103Z,92.02
2022-09-27T06:02:44.194Z,90.90
2022-09-27T06:05:38.935Z,90.51
2022-09-27T06:08:34.898Z,90.32
2022-09-27T06:11:22.014Z,90.75
2022-09-27T06:14:09.868Z,90.88
2022-09-27T06:17:06.712Z,90.87
2022-09-27T06:19:54.941Z,90.77
2022-09-27T06:22:42.775Z,91.03
2022-09-27T06:25:32.145Z,91.33
2022-09-27T06:28:39.302Z,90.47
2022-09-27T06:31:31.072Z,90.85
2022-09-27T06:34:42.907Z,90.49
2022-09-27T06:37:29.907Z,90.63
2022-09-27T06:40:16.884Z,91.22
2022-09-27T06:43:17.060Z,90.98
2022-09-27T06:46:21.861Z,91.43
2022-09-27T06:49:26.645Z,91.15
2022-09-27T06:52:12.566Z,91.05
2022-09-27T06:54:58.617Z,90.59
2022-09-27T06:58:03.013Z,90.67
2022-09-27T07:00:52.429Z,90.60
2022-09-27T07:04:01.146Z,91.64
2022-09-27T07:07:12.272Z,91.43
2022-09-27T07:10:04.205Z,91.38
2022-09-27T07:12:54.684Z,91.98
2022-09-27T07:15:41.886Z,91.92
2022-09-27T07:18:32.114Z,91.94
2022-09-27T07:21:18.548Z,91.55
2022-09-27T07:24:05.493Z,91.94
2022-09-27T07:26:52.606Z,92.23
2022-09-27T07:29:51.363Z,92.09
2022-09-27T07:33:09.625Z,92.69
2022-09-27T07:35:55.702Z,92.73
2022-09-27T07:38:42.761Z,92.43
2022-09-27T07:41:29.727Z,92.84
2022-09-27T07:44:18.530Z,93.34
2022-09-27T07:47:25.592Z,93.91
2022-09-27T07:50:38.443Z,94.04
2022-09-27T07:53:40.849Z,94.15
2022-09-27T07:56:45.725Z,93.80
2022-09-27T07:59:34.719Z,94.00
2022-09-27T08:02:26.622Z,93.96
2022-09-27T08:05:13.784Z,94.54
2022-09-27T08:08:02.776Z,94.89
2022-09-27T08:10:49.297Z,94.36
2022-09-27T08:13:37.723Z,94.97
2022-09-27T08:16:23.747Z,94.94
2022-09-27T08:19:45.711Z,95.03
2022-09-27T08:22:46.681Z,95.15
2022-09-27T08:26:10.842Z,94.70
2022-09-27T08:29:23.389Z,95.07
2022-09-27T08:32:11.994Z,95.08
2022-09-27T08:34:59.758Z,95.20
2022-09-27T08:37:53.484Z,96.43
2022-09-27T08:40:39.757Z,96.00
2022-09-27T08:43:33.897Z,96.00
2022-09-27T08:46:32.605Z,95.74
2022-09-27T08:49:26.567Z,96.44
2022-09-27T08:52:41.752Z,95.86
2022-09-27T08:55:37.714Z,95.71
2022-09-27T08:58:33.065Z,96.10
2022-09-27T09:01:25.096Z,96.75
2022-09-27T09:04:36.822Z,96.36
2022-09-27T09:07:35.906Z,96.71
2022-09-27T09:11:03.588Z,96.45
2022-09-27T09:14:14.413Z,96.54
2022-09-27T09:17:19.725Z,96.88
2022-09-27T09:20:29.984Z,97.01
2022-09-27T09:23:38.353Z,97.49
2022-09-27T09:26:33.774Z,97.77
2022-09-27T09:29:54.622Z,97.01
2022-09-27T09:33:15.035Z,96.93
2022-09-27T09:36:17.308Z,96.75
2022-09-27T09:39:16.356Z,96.92
2022-09-27T09:42:29.797Z,96.86
2022-09-27T09:45:34.285Z,96.89
2022-09-27T09:48:39.730Z,96.89
2022-09-27T09:51:35.584Z,96.95
2022-09-27T09:54:28.400Z,96.71
2022-09-27T09:57:17.370Z,96.82
2022-09-27T10:00:18.831Z,96.54
2022-09-27T10:03:08.779Z,97.23
2022-09-27T10:05:56.687Z,97.24
2022-09-27T10:08:42.935Z,97.11
2022-09-27T10:12:30.349Z,97.68
2022-09-27T10:15:27.394Z,97.40
2022-09-27T10:18:18.319Z,97.43
2022-09-27T10:21:11.339Z,97.68
2022-09-27T10:24:18.757Z,97.61
2022-09-27T10:27:23.421Z,97.58
2022-09-27T10:30:33.141Z,97.92
2022-09-27T10:33:23.697Z,97.94
2022-09-27T10:36:33.066Z,98.02
2022-09-27T10:39:23.948Z,98.31
2022-09-27T10:42:33.682Z,97.94
2022-09-27T10:45:31.515Z,98.32
2022-09-27T10:48:41.919Z,98.04
2022-09-27T10:51:40.730Z,98.09
2022-09-27T10:54:38.263Z,98.36
2022-09-27T10:57:25.117Z,98.17
2022-09-27T11:00:26.020Z,98.53
2022-09-27T11:03:15.664Z,98.92
2022-09-27T11:06:20.638Z,98.56
2022-09-27T11:09:19.215Z,97.87
2022-09-27T11:12:14.160Z,98.47
2022-09-27T11:15:07.562Z,97.79
2022-09-27T11:18:06.323Z,97.36
2022-09-27T11:21:00.216Z,97.65
2022-09-27T11:24:09.626Z,95.83
2022-09-27T11:27:05.363Z,95.82
2022-09-27T11:29:51.400Z,96.17
2022-09-27T11:33:12.986Z,95.88
2022-09-27T11:36:05.162Z,95.08
2022-09-27T11:39:03.015Z,94.90
2022-09-27T11:42:06.323Z,94.66
2022-09-27T11:45:37.119Z,94.42
2022-09-27T11:48:56.350Z,93.20
2022-09-27T11:52:04.201Z,93.08
2022-09-27T11:55:16.204Z,92.72
2022-09-27T11:58:22.261Z,92.58
2022-09-27T12:01:34.258Z,92.72
2022-09-27T12:04:49.388Z,92.71
2022-09-27T12:07:45.519Z,92.87
2022-09-27T12:10:32.545Z,92.13
2022-09-27T12:13:45.202Z,92.57
2022-09-27T12:16:31.988Z,91.36
2022-09-27T12:19:23.544Z,91.73
2022-09-27T12:22:53.985Z,91.67
2022-09-27T12:25:40.549Z,91.82
2022-09-27T12:28:51.076Z,91.20
2022-09-27T12:31:47.436Z,91.10
2022-09-27T12:34:39.417Z,91.64
2022-09-27T12:37:51.281Z,91.13
2022-09-27T12:40:42.368Z,91.54
2022-09-27T12:43:32.240Z,91.78
2022-09-27T12:46:51.470Z,91.75
2022-09-27T12:49:48.111Z,92.14
2022-09-27T12:52:39.202Z,92.11
2022-09-27T12:55:28.258Z,92.59
2022-09-27T12:58:23.095Z,92.43
2022-09-27T13:01:52.237Z,92.85
2022-09-27T13:04:41.855Z,93.29
2022-09-27T13:07:59.364Z,93.28
2022-09-27T13:10:55.217Z,93.68
2022-09-27T13:13:57.382Z,94.46
2022-09-27T13:16:43.852Z,93.63
2022-09-27T13:19:39.097Z,94.42
2022-09-27T13:22:40.229Z,94.32
2022-09-27T13:25:55.408Z,94.69
2022-09-27T13:29:05.001Z,94.83
2022-09-27T13:32:14.930Z,95.09
2022-09-27T13:35:24.572Z,95.13
2022-09-27T13:38:23.340Z,94.66
2022-09-27T13:41:18.313Z,94.87
2022-09-27T13:44:14.188Z,95.08
2022-09-27T13:47:27.323Z,94.80
2022-09-27T13:50:20.678Z,94.98
2022-09-27T13:53:35.936Z,95.28
2022-09-27T13:56:47.127Z,95.66
2022-09-27T13:59:44.183Z,95.76
2022-09-27T14:03:14.930Z,95.95
2022-09-27T14:06:08.604Z,96.17
2022-09-27T14:08:58.768Z,95.93
2022-09-27T14:11:52.653Z,96.13
2022-09-27T14:14:39.028Z,96.40
2022-09-27T14:17:26.217Z,96.73
2022-09-27T14:20:50.968Z,96.86
2022-09-27T14:24:30.030Z,97.14
2022-09-27T14:27:22.916Z,96.98
2022-09-27T14:30:17.224Z,97.32
2022-09-27T14:33:29.983Z,97.59
2022-09-27T14:36:44.282Z,97.92
2022-09-27T14:39:37.635Z,98.00
2022-09-27T14:42:41.656Z,98.34
2022-09-27T14:45:40.235Z,98.38
2022-09-27T14:48:35.856Z,98.71
2022-09-27T14:51:30.261Z,98.53
2022-09-27T14:54:21.039Z,98.54
2022-09-27T14:57:08.966Z,98.69
2022-09-27T14:59:57.667Z,98.55
2022-09-27T15:02:44.225Z,98.47
2022-09-27T15:05:35.127Z,98.95
2022-09-27T15:08:21.400Z,99.31
2022-09-27T15:11:08.066Z,99.27
2022-09-27T15:13:55.166Z,98.97
2022-09-27T15:16:42.440Z,98.96
2022-09-27T15:19:29.518Z,99.16
2022-09-27T15:22:35.502Z,99.30
2022-09-27T15:25:34.789Z,99.21
2022-09-27T15:28:21.180Z,98.94
2022-09-27T15:31:37.671Z,99.15
2022-09-27T15:34:31.872Z,99.32
2022-09-27T15:41:07.874Z,99.36
2022-09-27T15:43:54.565Z,99.85
2022-09-27T15:50:15.731Z,99.73
2022-09-27T15:53:02.951Z,100.00
2022-09-27T15:55:49.357Z,99.97
2022-09-27T15:58:35.864Z,100.00
2022-09-27T16:01:22.489Z,99.96
2022-09-27T16:04:09.210Z,99.97
2022-09-27T16:06:54.754Z,100.00
2022-09-27T16:09:40.651Z,100.00
2022-09-27T16:12:30.078Z,100.00
2022-09-27T16:15:16.549Z,100.00
2022-09-27T16:18:02.212Z,100.00
2022-09-27T16:20:47.994Z,100.00
2022-09-27T16:23:33.814Z,100.00
2022-09-27T16:26:19.792Z,100.00
2022-09-27T16:29:10.033Z,100.00
2022-09-27T16:31:56.243Z,100.00
2022-09-27T16:34:41.721Z,100.00
2022-09-27T16:37:27.911Z,100.00
2022-09-27T16:40:15.275Z,100.00
2022-09-27T16:43:01.042Z,100.00
2022-09-27T16:45:46.585Z,100.00
2022-09-27T16:48:32.885Z,100.00
2022-09-27T16:51:39.730Z,100.00
2022-09-27T16:54:25.786Z,100.00
2022-09-27T16:57:11.608Z,100.00
2022-09-27T16:59:57.394Z,100.00
2022-09-27T17:02:47.148Z,100.00
2022-09-27T17:05:33.239Z,100.00
2022-09-27T17:08:18.991Z,100.00
2022-09-27T17:11:06.492Z,100.00
2022-09-27T17:13:56.596Z,100.00
2022-09-27T17:16:44.157Z,100.00
2022-09-27T17:19:32.992Z,100.00
2022-09-27T17:22:20.400Z,100.00
2022-09-27T17:25:06.816Z,100.00
2022-09-27T17:27:53.174Z,100.00
2022-09-27T17:30:43.312Z,100.00
2022-09-27T17:33:29.217Z,100.00
2022-09-27T17:36:17.693Z,100.00
2022-09-27T17:39:05.027Z,100.00
2022-09-27T17:41:51.209Z,100.00
2022-09-27T17:44:37.604Z,100.00
2022-09-27T17:47:42.149Z,100.00
2022-09-27T17:50:28.906Z,100.00
2022-09-27T17:53:14.460Z,100.00
2022-09-27T17:56:01.673Z,100.00
2022-09-27T17:58:49.058Z,100.00
2022-09-27T18:01:37.726Z,100.00
2022-09-27T18:04:23.884Z,100.00
2022-09-27T18:07:13.026Z,100.00
2022-09-27T18:09:59.424Z,100.00
2022-09-27T18:12:45.494Z,100.00
2022-09-27T18:15:31.569Z,100.00
2022-09-27T18:18:18.986Z,100.00
2022-09-27T18:21:11.447Z,100.00
2022-09-27T18:23:59.570Z,100.00
2022-09-27T18:26:48.451Z,100.00
2022-09-27T18:29:34.677Z,100.00
2022-09-27T18:35:24.943Z,100.00
2022-09-27T18:38:10.442Z,100.00
2022-09-27T18:40:57.820Z,100.00
2022-09-27T18:43:46.214Z,100.00
2022-09-27T18:46:36.241Z,100.00
2022-09-27T18:49:26.338Z,100.00
2022-09-27T18:52:13.226Z,100.00
2022-09-27T18:54:59.403Z,100.00
2022-09-27T18:57:46.904Z,100.00
2022-09-27T19:00:33.013Z,100.00
2022-09-27T19:03:19.355Z,100.00
2022-09-27T19:06:08.071Z,100.00
2022-09-27T19:08:57.038Z,100.00
2022-09-27T19:12:00.493Z,100.00
2022-09-27T19:15:59.322Z,100.00
2022-09-27T19:18:38.657Z,100.00
2022-09-27T19:21:27.980Z,100.00
2022-09-27T19:24:14.367Z,100.00
2022-09-27T19:27:00.460Z,100.00
2022-09-27T19:29:46.312Z,100.00
2022-09-27T19:32:31.946Z,100.00
2022-09-27T19:35:18.153Z,100.00
2022-09-27T19:38:04.438Z,100.00
2022-09-27T19:40:54.471Z,100.00
2022-09-27T19:43:41.356Z,100.00
2022-09-27T19:46:27.929Z,100.00
2022-09-27T19:49:14.314Z,100.00
2022-09-27T19:52:01.088Z,100.00
2022-09-27T19:54:46.674Z,100.00
2022-09-27T19:57:32.242Z,100.00
2022-09-27T20:00:18.531Z,100.00
2022-09-27T20:03:04.229Z,100.00
2022-09-27T20:05:55.246Z,100.00
2022-09-27T20:08:41.586Z,100.00
2022-09-27T20:11:29.576Z,100.00
2022-09-27T20:14:15.369Z,100.00
2022-09-27T20:17:01.680Z,100.00
2022-09-27T20:19:48.002Z,100.00
2022-09-27T20:22:34.022Z,100.00
2022-09-27T20:25:20.258Z,100.00
2022-09-27T20:28:06.127Z,100.00
2022-09-27T20:30:57.037Z,100.00
2022-09-27T20:33:44.760Z,100.00
2022-09-27T20:36:32.938Z,100.00
2022-09-27T20:39:19.203Z,100.00
2022-09-27T20:42:05.306Z,100.00
2022-09-27T20:44:54.358Z,100.00
2022-09-27T20:47:40.243Z,100.00
2022-09-27T20:50:26.100Z,100.00
2022-09-27T20:53:11.570Z,100.00
2022-09-27T20:56:04.799Z,100.00
2022-09-27T20:58:52.958Z,100.00
2022-09-27T21:01:41.821Z,100.00
2022-09-27T21:04:29.653Z,100.00
2022-09-27T21:07:15.676Z,100.00
2022-09-27T21:10:01.296Z,100.00
2022-09-27T21:12:47.383Z,100.00
2022-09-27T21:15:33.135Z,100.00
2022-09-27T21:18:20.087Z,100.00
2022-09-27T21:21:08.049Z,100.00
2022-09-27T21:23:56.854Z,100.00
2022-09-27T21:26:42.331Z,100.00
2022-09-27T21:29:28.110Z,100.00
2022-09-27T21:32:13.949Z,100.00
2022-09-27T21:35:00.405Z,100.00
2022-09-27T21:37:47.501Z,100.00
2022-09-27T21:40:33.811Z,100.00
2022-09-27T21:43:19.590Z,100.00
2022-09-27T21:46:18.552Z,100.00
2022-09-27T21:49:04.363Z,100.00
2022-09-27T21:51:50.105Z,100.00
2022-09-27T21:54:35.817Z,100.00
2022-09-27T21:57:21.966Z,100.00
2022-09-27T22:00:08.633Z,100.00
2022-09-27T22:02:57.993Z,100.00
2022-09-27T22:05:48.367Z,100.00
2022-09-27T22:08:34.392Z,100.00
2022-09-27T22:11:28.742Z,100.00
2022-09-27T22:14:16.155Z,100.00
2022-09-27T22:17:01.615Z,100.00
2022-09-27T22:19:47.541Z,100.00
2022-09-27T22:22:33.594Z,100.00
2022-09-27T22:25:19.339Z,100.00
2022-09-27T22:28:04.787Z,100.00
2022-09-27T22:30:51.589Z,100.00
2022-09-27T22:33:37.895Z,100.00
2022-09-27T22:36:24.726Z,100.00
2022-09-27T22:39:10.385Z,100.00
2022-09-27T22:41:57.216Z,100.00
2022-09-27T22:44:42.875Z,100.00
2022-09-27T22:47:29.462Z,100.00
2022-09-27T22:50:14.884Z,100.00
2022-09-27T22:53:00.404Z,100.00
2022-09-27T22:55:59.668Z,100.00
2022-09-27T22:58:48.757Z,100.00
2022-09-27T23:01:35.644Z,100.00
2022-09-27T23:04:21.568Z,100.00
2022-09-27T23:07:07.420Z,100.00
2022-09-27T23:09:53.034Z,100.00
2022-09-27T23:12:38.550Z,100.00
2022-09-27T23:15:24.063Z,100.00
2022-09-27T23:18:10.071Z,100.00
2022-09-27T23:21:02.694Z,100.00
2022-09-27T23:23:49.296Z,100.00
2022-09-27T23:26:35.213Z,100.00
2022-09-27T23:29:20.724Z,100.00
2022-09-27T23:32:06.719Z,100.00
2022-09-27T23:34:52.751Z,100.00
2022-09-27T23:37:39.743Z,100.00
2022-09-27T23:40:25.244Z,100.00
2022-09-27T23:43:11.233Z,100.00
2022-09-27T23:45:57.459Z,100.00
2022-09-27T23:48:44.550Z,100.00
2022-09-27T23:51:30.351Z,100.00
2022-09-27T23:54:16.179Z,100.00
2022-09-27T23:57:02.516Z,100.00
2022-09-27T23:59:48.510Z,100.00
